Ocean Fresh — WDC4996 — position and weather

sailwx.info

Track history (hours):
 
Tides and Currents Weather Stations Pressure Air Temp Water Temp Dewpoint Dewpoint Depression Visibility Wind Speed Wind Dir Waves Ship Positions

Ocean Fresh

Owner: Ocean Fresh Seafood company, Seattle, WA. More information available from US FCC via Universal Licensing System and Coast Guard Vessel Documentation Center.

Last reported at 2016-Jun-18 11:33 UTC. Time now 2016-Jul-26 12:12 UTC.
Position N 58°19' W 136°12'.
Warning: this ship's position is 38 days out of date.

Length 67 m; draft 4.5 m.

Type: Ship (hazmat cat A). MMSI: 367773000.

Date/timePositionNaut miles runAvg speedWind from/ knotsBaromVisibWave heightAir tempDewpointWater temp
2016-Jun-18 11:33N 58°19' W 136°12'1413.8
2016-Jun-18 10:33N 58°18' W 135°46'490 9.8
2016-Jun-16 08:27N 51°31' W 127°52'1111.2
2016-Jun-16 07:29N 51°20' W 127°52'1011.2
2016-Jun-16 06:33N 51°10' W 127°51'1111.3
2016-Jun-16 05:33N 51°02' W 127°38'1111.2
2016-Jun-16 04:33N 50°55' W 127°24'1111.2
2016-Jun-16 03:32N 50°49' W 127°09'1111.1
2016-Jun-16 02:32N 50°42' W 126°55'5811.3
2016-Jun-15 21:26N 50°21' W 125°31'9 9.9
2016-Jun-15 20:34N 50°14' W 125°23'8 8.1
2016-Jun-15 19:34N 50°07' W 125°18'7 7.1
2016-Jun-15 18:34N 50°00' W 125°13'7 7.1
2016-Jun-15 17:33N 49°56' W 125°05'10 9.8
2016-Jun-15 16:34N 49°49' W 124°53'1110.7
2016-Jun-15 15:33N 49°43' W 124°40'1211.9
2016-Jun-15 14:34N 49°36' W 124°25'1111.5
2016-Jun-15 13:34N 49°30' W 124°10'1211.7
2016-Jun-15 12:34N 49°23' W 123°55'1212.2
2016-Jun-15 11:34N 49°16' W 123°40'1211.9
2016-Jun-15 10:34N 49°08' W 123°27'1211.7
2016-Jun-15 09:34N 48°59' W 123°14'1111.0
2016-Jun-15 08:34N 48°52' W 123°01'1211.6
2016-Jun-15 07:33N 48°46' W 122°47'1111.0
2016-Jun-15 06:34N 48°35' W 122°45'1212.1
2016-Jun-15 05:33N 48°23' W 122°44'1410.0
2016-Jun-15 04:08N 48°09' W 122°42'711.5
2016-Jun-15 03:33N 48°03' W 122°38'1111.4
2016-Jun-15 02:34N 47°53' W 122°28'1212.2
2016-Jun-15 01:34N 47°41' W 122°25'2 1.9
2016-Jun-15 00:34N 47°40' W 122°23'0 0.0
2016-Jun-14 23:34N 47°40' W 122°23'0 0.0
2016-Jun-14 22:34N 47°40' W 122°23'0 0.0
2016-Jun-14 21:34N 47°40' W 122°23'0 0.0
2016-Jun-14 20:33N 47°40' W 122°23'0 0.0
2016-Jun-14 19:34N 47°40' W 122°23'0 0.0
2016-Jun-14 18:34N 47°40' W 122°23'0 0.0
2016-Jun-14 17:34N 47°40' W 122°23'0 0.0
2016-Jun-14 16:33N 47°40' W 122°23'0 0.0
2016-Jun-14 15:34N 47°40' W 122°23'0 0.0
2016-Jun-14 14:34N 47°40' W 122°23'0 0.0
2016-Jun-14 13:33N 47°40' W 122°23'0 0.0
2016-Jun-14 12:34N 47°40' W 122°23'0 0.0
2016-Jun-14 11:33N 47°40' W 122°23'0 0.0
2016-Jun-14 10:34N 47°40' W 122°23'0 0.0
2016-Jun-14 09:34N 47°40' W 122°23'0 0.0
2016-Jun-14 08:34N 47°40' W 122°23'0 0.0
2016-Jun-14 07:34N 47°40' W 122°23'0 0.0
2016-Jun-14 05:33N 47°40' W 122°23'0 0.0
2016-Jun-14 04:33N 47°40' W 122°23'0 0.0
2016-Jun-14 03:34N 47°40' W 122°23'0 0.0
2016-Jun-14 02:34N 47°40' W 122°23'0 0.0
2016-Jun-14 01:34N 47°40' W 122°23'0 0.0
2016-Jun-14 00:34N 47°40' W 122°23'0 0.0
2016-Jun-13 23:34N 47°40' W 122°23'0 0.0
2016-Jun-13 22:34N 47°40' W 122°23'0 0.0
2016-Jun-13 21:34N 47°40' W 122°23'0 0.0
2016-Jun-13 20:34N 47°40' W 122°23'0 0.0
2016-Jun-13 19:34N 47°40' W 122°23'0 0.0
2016-Jun-13 18:34N 47°40' W 122°23'0 0.0
2016-Jun-13 17:34N 47°40' W 122°23'0 0.0
2016-Jun-13 16:34N 47°40' W 122°23'0 0.0
2016-Jun-13 15:34N 47°40' W 122°23'0 0.0
2016-Jun-13 14:34N 47°40' W 122°23'0 0.0
2016-Jun-13 13:34N 47°40' W 122°23'0 0.0
2016-Jun-13 12:34N 47°40' W 122°23'0 0.0
2016-Jun-13 11:34N 47°40' W 122°23'0 0.0
2016-Jun-13 10:33N 47°40' W 122°23'0 0.0
2016-Jun-13 09:34N 47°40' W 122°23'0 0.0
2016-Jun-13 08:33N 47°40' W 122°23'0 0.0
2016-Jun-13 07:33N 47°40' W 122°23'0 0.0
2016-Jun-13 06:34N 47°40' W 122°23'0 0.0
2016-Jun-13 05:33N 47°40' W 122°23'0 0.0
2016-Jun-13 04:34N 47°40' W 122°23'0 0.0
2016-Jun-13 03:34N 47°40' W 122°23'0 0.0
2016-Jun-13 02:34N 47°40' W 122°23'0 0.0
2016-Jun-13 01:33N 47°40' W 122°23'0 0.0
2016-Jun-13 00:34N 47°40' W 122°23'0 0.0
2016-Jun-12 23:33N 47°40' W 122°23'0 0.0
2016-Jun-12 22:33N 47°40' W 122°23'0 0.0
2016-Jun-12 21:34N 47°40' W 122°23'0 0.0
2016-Jun-12 20:34N 47°40' W 122°23'0 0.0
2016-Jun-12 19:34N 47°40' W 122°23'0 0.0
2016-Jun-12 18:34N 47°40' W 122°23'0 0.0
2016-Jun-12 17:33N 47°40' W 122°23'0 0.0
2016-Jun-12 16:34N 47°40' W 122°23'0 0.0
2016-Jun-12 15:34N 47°40' W 122°23'0 0.0
2016-Jun-12 14:33N 47°40' W 122°23'0 0.0
2016-Jun-12 13:33N 47°40' W 122°23'0 0.0
2016-Jun-12 12:33N 47°40' W 122°23'0 0.0
2016-Jun-12 11:33N 47°40' W 122°23'0 0.0
2016-Jun-12 10:34N 47°40' W 122°23'0 0.0
2016-Jun-12 09:33N 47°40' W 122°23'0 0.0
2016-Jun-12 08:34N 47°40' W 122°23'0 0.0
2016-Jun-12 07:34N 47°40' W 122°23'0 0.0
2016-Jun-12 06:33N 47°40' W 122°23'0 0.0
2016-Jun-12 04:33N 47°40' W 122°23'0 0.0
2016-Jun-12 03:33N 47°40' W 122°23'0 0.0
2016-Jun-12 02:33N 47°40' W 122°23'0 0.0
2016-Jun-12 01:33N 47°40' W 122°23'0 0.0
2016-Jun-12 00:33N 47°40' W 122°23'0 0.0
2016-Jun-11 23:34N 47°40' W 122°23'0 0.0
2016-Jun-11 22:34N 47°40' W 122°23'0 0.0
2016-Jun-11 21:33N 47°40' W 122°23'0 0.0
2016-Jun-11 20:33N 47°40' W 122°23'0 0.0
2016-Jun-11 19:34N 47°40' W 122°23'0 0.0
2016-Jun-11 19:00N 47°40' W 122°23'0 0.0
2016-Jun-11 18:33N 47°40' W 122°23'0 0.0
2016-Jun-11 17:33N 47°40' W 122°23'0 0.0
2016-Jun-11 16:33N 47°40' W 122°23'0 0.0
2016-Jun-11 15:33N 47°40' W 122°23'0 0.0
2016-Jun-11 14:33N 47°40' W 122°23'0 0.0
2016-Jun-11 13:33N 47°40' W 122°23'0 0.0
2016-Jun-11 12:33N 47°40' W 122°23'0 0.0
2016-Jun-11 11:33N 47°40' W 122°23'0 0.0
2016-Jun-11 10:33N 47°40' W 122°23'0 0.0
2016-Jun-11 09:33N 47°40' W 122°23'0 0.0
2016-Jun-11 08:33N 47°40' W 122°23'0 0.0
2016-Jun-11 07:33N 47°40' W 122°23'0 0.0
2016-Jun-11 06:33N 47°40' W 122°23'0 0.0
2016-Jun-11 05:33N 47°40' W 122°23'0 0.0
2016-Jun-11 04:33N 47°40' W 122°23'0 0.0
2016-Jun-11 03:33N 47°40' W 122°23'0 0.0
2016-Jun-11 02:33N 47°40' W 122°23'0 0.0
2016-Jun-11 01:33N 47°40' W 122°23'0 0.0
2016-Jun-11 00:33N 47°40' W 122°23'0 0.0
2016-Jun-10 23:34N 47°40' W 122°23'0 0.0
2016-Jun-10 22:33N 47°40' W 122°23'0 0.0
2016-Jun-10 21:33N 47°40' W 122°23'0 0.0
2016-Jun-10 20:33N 47°40' W 122°23'0 0.0
2016-Jun-10 19:33N 47°40' W 122°23'0 0.0
2016-Jun-10 18:33N 47°40' W 122°23'0 0.0
2016-Jun-10 17:33N 47°40' W 122°23'0 0.0
2016-Jun-10 16:33N 47°40' W 122°23'0 0.0
2016-Jun-10 15:33N 47°40' W 122°23'0 0.0
2016-Jun-10 14:33N 47°40' W 122°23'0 0.0
2016-Jun-10 13:33N 47°40' W 122°23'0 0.0
2016-Jun-10 12:33N 47°40' W 122°23'0 0.0
2016-Jun-10 11:33N 47°40' W 122°23'0 0.0
2016-Jun-10 10:33N 47°40' W 122°23'0 0.0
2016-Jun-10 09:33N 47°40' W 122°23'0 0.0
2016-Jun-10 08:33N 47°40' W 122°23'0 0.0
2016-Jun-10 07:33N 47°40' W 122°23'0 0.0
2016-Jun-10 06:33N 47°40' W 122°23'0 0.0
2016-Jun-10 05:33N 47°40' W 122°23'0 0.0
2016-Jun-10 04:33N 47°40' W 122°23'0 0.0
2016-Jun-10 03:33N 47°40' W 122°23'0 0.0
2016-Jun-10 02:33N 47°40' W 122°23'0 0.0
2016-Jun-10 01:33N 47°40' W 122°23'0 0.0
2016-Jun-10 00:33N 47°40' W 122°23'0 0.0
2016-Jun-09 23:33N 47°40' W 122°23'0 0.0
2016-Jun-09 22:33N 47°40' W 122°23'0 0.0
2016-Jun-09 21:33N 47°40' W 122°23'0 0.0
2016-Jun-09 20:34N 47°40' W 122°23'0 0.0
2016-Jun-09 19:34N 47°40' W 122°23'0 0.0
2016-Jun-09 18:34N 47°40' W 122°23'0 0.0
2016-Jun-09 17:33N 47°40' W 122°23'0 0.0
2016-Jun-09 16:33N 47°40' W 122°23'0 0.0
2016-Jun-09 15:33N 47°40' W 122°23'0 0.0
2016-Jun-09 14:33N 47°40' W 122°23'0 0.0
2016-Jun-09 13:33N 47°40' W 122°23'0 0.0
2016-Jun-09 12:33N 47°40' W 122°23'0 0.0
2016-Jun-09 11:34N 47°40' W 122°23'0 0.0
2016-Jun-09 10:33N 47°40' W 122°23'0 0.0
2016-Jun-09 09:34N 47°40' W 122°23'0 0.0
2016-Jun-09 08:33N 47°40' W 122°23'0 0.0
2016-Jun-09 07:33N 47°40' W 122°23'0 0.0
2016-Jun-09 06:33N 47°40' W 122°23'0 0.0
2016-Jun-09 05:33N 47°40' W 122°23'0 0.0
2016-Jun-09 04:33N 47°40' W 122°23'0 0.0
2016-Jun-09 03:33N 47°40' W 122°23'0 0.0
2016-Jun-09 02:34N 47°40' W 122°23'0 0.0
2016-Jun-09 01:33N 47°40' W 122°23'0 0.0
2016-Jun-09 00:33N 47°40' W 122°23'0 0.0
2016-Jun-08 23:33N 47°40' W 122°23'0 0.0
2016-Jun-08 22:33N 47°40' W 122°23'0 0.0
2016-Jun-08 21:33N 47°40' W 122°23'0 0.0
2016-Jun-08 20:33N 47°40' W 122°23'0 0.0
2016-Jun-08 19:33N 47°40' W 122°23'0 0.0
2016-Jun-08 18:33N 47°40' W 122°23'0 0.0
2016-Jun-08 17:33N 47°40' W 122°23'0 0.0
2016-Jun-08 16:33N 47°40' W 122°23'0 0.0
2016-Jun-08 15:33N 47°40' W 122°23'0 0.0
2016-Jun-08 14:33N 47°40' W 122°23'0 0.0
2016-Jun-08 13:33N 47°40' W 122°23'0 0.0
2016-Jun-08 12:33N 47°40' W 122°23'0 0.0
2016-Jun-08 11:34N 47°40' W 122°23'  
Track history (hours):
 
Tides and Currents Weather Stations Pressure Air Temp Water Temp Dewpoint Dewpoint Depression Visibility Wind Speed Wind Dir Waves Ship Positions

Ocean Fresh

Owner: Ocean Fresh Seafood company, Seattle, WA. More information available from US FCC via Universal Licensing System and Coast Guard Vessel Documentation Center.

Last reported at 2016-Jun-18 11:33 UTC. Time now 2016-Jul-26 12:12 UTC.
Position N 58°19' W 136°12'.
Warning: this ship's position is 38 days out of date.

Length 67 m; draft 4.5 m.

Type: Ship (hazmat cat A). MMSI: 367773000.

Date/timePositionNaut miles runAvg speedWind from/ knotsBaromVisibWave heightAir tempDewpointWater temp
2016-Jun-18 11:33N 58°19' W 136°12'1413.8
2016-Jun-18 10:33N 58°18' W 135°46'490 9.8
2016-Jun-16 08:27N 51°31' W 127°52'1111.2
2016-Jun-16 07:29N 51°20' W 127°52'1011.2
2016-Jun-16 06:33N 51°10' W 127°51'1111.3
2016-Jun-16 05:33N 51°02' W 127°38'1111.2
2016-Jun-16 04:33N 50°55' W 127°24'1111.2
2016-Jun-16 03:32N 50°49' W 127°09'1111.1
2016-Jun-16 02:32N 50°42' W 126°55'5811.3
2016-Jun-15 21:26N 50°21' W 125°31'9 9.9
2016-Jun-15 20:34N 50°14' W 125°23'8 8.1
2016-Jun-15 19:34N 50°07' W 125°18'7 7.1
2016-Jun-15 18:34N 50°00' W 125°13'7 7.1
2016-Jun-15 17:33N 49°56' W 125°05'10 9.8
2016-Jun-15 16:34N 49°49' W 124°53'1110.7
2016-Jun-15 15:33N 49°43' W 124°40'1211.9
2016-Jun-15 14:34N 49°36' W 124°25'1111.5
2016-Jun-15 13:34N 49°30' W 124°10'1211.7
2016-Jun-15 12:34N 49°23' W 123°55'1212.2
2016-Jun-15 11:34N 49°16' W 123°40'1211.9
2016-Jun-15 10:34N 49°08' W 123°27'1211.7
2016-Jun-15 09:34N 48°59' W 123°14'1111.0
2016-Jun-15 08:34N 48°52' W 123°01'1211.6
2016-Jun-15 07:33N 48°46' W 122°47'1111.0
2016-Jun-15 06:34N 48°35' W 122°45'1212.1
2016-Jun-15 05:33N 48°23' W 122°44'1410.0
2016-Jun-15 04:08N 48°09' W 122°42'711.5
2016-Jun-15 03:33N 48°03' W 122°38'1111.4
2016-Jun-15 02:34N 47°53' W 122°28'1212.2
2016-Jun-15 01:34N 47°41' W 122°25'2 1.9
2016-Jun-15 00:34N 47°40' W 122°23'0 0.0
2016-Jun-14 23:34N 47°40' W 122°23'0 0.0
2016-Jun-14 22:34N 47°40' W 122°23'0 0.0
2016-Jun-14 21:34N 47°40' W 122°23'0 0.0
2016-Jun-14 20:33N 47°40' W 122°23'0 0.0
2016-Jun-14 19:34N 47°40' W 122°23'0 0.0
2016-Jun-14 18:34N 47°40' W 122°23'0 0.0
2016-Jun-14 17:34N 47°40' W 122°23'0 0.0
2016-Jun-14 16:33N 47°40' W 122°23'0 0.0
2016-Jun-14 15:34N 47°40' W 122°23'0 0.0
2016-Jun-14 14:34N 47°40' W 122°23'0 0.0
2016-Jun-14 13:33N 47°40' W 122°23'0 0.0
2016-Jun-14 12:34N 47°40' W 122°23'0 0.0
2016-Jun-14 11:33N 47°40' W 122°23'0 0.0
2016-Jun-14 10:34N 47°40' W 122°23'0 0.0
2016-Jun-14 09:34N 47°40' W 122°23'0 0.0
2016-Jun-14 08:34N 47°40' W 122°23'0 0.0
2016-Jun-14 07:34N 47°40' W 122°23'0 0.0
2016-Jun-14 05:33N 47°40' W 122°23'0 0.0
2016-Jun-14 04:33N 47°40' W 122°23'0 0.0
2016-Jun-14 03:34N 47°40' W 122°23'0 0.0
2016-Jun-14 02:34N 47°40' W 122°23'0 0.0
2016-Jun-14 01:34N 47°40' W 122°23'0 0.0
2016-Jun-14 00:34N 47°40' W 122°23'0 0.0
2016-Jun-13 23:34N 47°40' W 122°23'0 0.0
2016-Jun-13 22:34N 47°40' W 122°23'0 0.0
2016-Jun-13 21:34N 47°40' W 122°23'0 0.0
2016-Jun-13 20:34N 47°40' W 122°23'0 0.0
2016-Jun-13 19:34N 47°40' W 122°23'0 0.0
2016-Jun-13 18:34N 47°40' W 122°23'0 0.0
2016-Jun-13 17:34N 47°40' W 122°23'0 0.0
2016-Jun-13 16:34N 47°40' W 122°23'0 0.0
2016-Jun-13 15:34N 47°40' W 122°23'0 0.0
2016-Jun-13 14:34N 47°40' W 122°23'0 0.0
2016-Jun-13 13:34N 47°40' W 122°23'0 0.0
2016-Jun-13 12:34N 47°40' W 122°23'0 0.0
2016-Jun-13 11:34N 47°40' W 122°23'0 0.0
2016-Jun-13 10:33N 47°40' W 122°23'0 0.0
2016-Jun-13 09:34N 47°40' W 122°23'0 0.0
2016-Jun-13 08:33N 47°40' W 122°23'0 0.0
2016-Jun-13 07:33N 47°40' W 122°23'0 0.0
2016-Jun-13 06:34N 47°40' W 122°23'0 0.0
2016-Jun-13 05:33N 47°40' W 122°23'0 0.0
2016-Jun-13 04:34N 47°40' W 122°23'0 0.0
2016-Jun-13 03:34N 47°40' W 122°23'0 0.0
2016-Jun-13 02:34N 47°40' W 122°23'0 0.0
2016-Jun-13 01:33N 47°40' W 122°23'0 0.0
2016-Jun-13 00:34N 47°40' W 122°23'0 0.0
2016-Jun-12 23:33N 47°40' W 122°23'0 0.0
2016-Jun-12 22:33N 47°40' W 122°23'0 0.0
2016-Jun-12 21:34N 47°40' W 122°23'0 0.0
2016-Jun-12 20:34N 47°40' W 122°23'0 0.0
2016-Jun-12 19:34N 47°40' W 122°23'0 0.0
2016-Jun-12 18:34N 47°40' W 122°23'0 0.0
2016-Jun-12 17:33N 47°40' W 122°23'0 0.0
2016-Jun-12 16:34N 47°40' W 122°23'0 0.0
2016-Jun-12 15:34N 47°40' W 122°23'0 0.0
2016-Jun-12 14:33N 47°40' W 122°23'0 0.0
2016-Jun-12 13:33N 47°40' W 122°23'0 0.0
2016-Jun-12 12:33N 47°40' W 122°23'0 0.0
2016-Jun-12 11:33N 47°40' W 122°23'0 0.0
2016-Jun-12 10:34N 47°40' W 122°23'0 0.0
2016-Jun-12 09:33N 47°40' W 122°23'0 0.0
2016-Jun-12 08:34N 47°40' W 122°23'0 0.0
2016-Jun-12 07:34N 47°40' W 122°23'0 0.0
2016-Jun-12 06:33N 47°40' W 122°23'0 0.0
2016-Jun-12 04:33N 47°40' W 122°23'0 0.0
2016-Jun-12 03:33N 47°40' W 122°23'0 0.0
2016-Jun-12 02:33N 47°40' W 122°23'0 0.0
2016-Jun-12 01:33N 47°40' W 122°23'0 0.0
2016-Jun-12 00:33N 47°40' W 122°23'0 0.0
2016-Jun-11 23:34N 47°40' W 122°23'0 0.0
2016-Jun-11 22:34N 47°40' W 122°23'0 0.0
2016-Jun-11 21:33N 47°40' W 122°23'0 0.0
2016-Jun-11 20:33N 47°40' W 122°23'0 0.0
2016-Jun-11 19:34N 47°40' W 122°23'0 0.0
2016-Jun-11 19:00N 47°40' W 122°23'0 0.0
2016-Jun-11 18:33N 47°40' W 122°23'0 0.0
2016-Jun-11 17:33N 47°40' W 122°23'0 0.0
2016-Jun-11 16:33N 47°40' W 122°23'0 0.0
2016-Jun-11 15:33N 47°40' W 122°23'0 0.0
2016-Jun-11 14:33N 47°40' W 122°23'0 0.0
2016-Jun-11 13:33N 47°40' W 122°23'0 0.0
2016-Jun-11 12:33N 47°40' W 122°23'0 0.0
2016-Jun-11 11:33N 47°40' W 122°23'0 0.0
2016-Jun-11 10:33N 47°40' W 122°23'0 0.0
2016-Jun-11 09:33N 47°40' W 122°23'0 0.0
2016-Jun-11 08:33N 47°40' W 122°23'0 0.0
2016-Jun-11 07:33N 47°40' W 122°23'0 0.0
2016-Jun-11 06:33N 47°40' W 122°23'0 0.0
2016-Jun-11 05:33N 47°40' W 122°23'0 0.0
2016-Jun-11 04:33N 47°40' W 122°23'0 0.0
2016-Jun-11 03:33N 47°40' W 122°23'0 0.0
2016-Jun-11 02:33N 47°40' W 122°23'0 0.0
2016-Jun-11 01:33N 47°40' W 122°23'0 0.0
2016-Jun-11 00:33N 47°40' W 122°23'0 0.0
2016-Jun-10 23:34N 47°40' W 122°23'0 0.0
2016-Jun-10 22:33N 47°40' W 122°23'0 0.0
2016-Jun-10 21:33N 47°40' W 122°23'0 0.0
2016-Jun-10 20:33N 47°40' W 122°23'0 0.0
2016-Jun-10 19:33N 47°40' W 122°23'0 0.0
2016-Jun-10 18:33N 47°40' W 122°23'0 0.0
2016-Jun-10 17:33N 47°40' W 122°23'0 0.0
2016-Jun-10 16:33N 47°40' W 122°23'0 0.0
2016-Jun-10 15:33N 47°40' W 122°23'0 0.0
2016-Jun-10 14:33N 47°40' W 122°23'0 0.0
2016-Jun-10 13:33N 47°40' W 122°23'0 0.0
2016-Jun-10 12:33N 47°40' W 122°23'0 0.0
2016-Jun-10 11:33N 47°40' W 122°23'0 0.0
2016-Jun-10 10:33N 47°40' W 122°23'0 0.0
2016-Jun-10 09:33N 47°40' W 122°23'0 0.0
2016-Jun-10 08:33N 47°40' W 122°23'0 0.0
2016-Jun-10 07:33N 47°40' W 122°23'0 0.0
2016-Jun-10 06:33N 47°40' W 122°23'0 0.0
2016-Jun-10 05:33N 47°40' W 122°23'0 0.0
2016-Jun-10 04:33N 47°40' W 122°23'0 0.0
2016-Jun-10 03:33N 47°40' W 122°23'0 0.0
2016-Jun-10 02:33N 47°40' W 122°23'0 0.0
2016-Jun-10 01:33N 47°40' W 122°23'0 0.0
2016-Jun-10 00:33N 47°40' W 122°23'0 0.0
2016-Jun-09 23:33N 47°40' W 122°23'0 0.0
2016-Jun-09 22:33N 47°40' W 122°23'0 0.0
2016-Jun-09 21:33N 47°40' W 122°23'0 0.0
2016-Jun-09 20:34N 47°40' W 122°23'0 0.0
2016-Jun-09 19:34N 47°40' W 122°23'0 0.0
2016-Jun-09 18:34N 47°40' W 122°23'0 0.0
2016-Jun-09 17:33N 47°40' W 122°23'0 0.0
2016-Jun-09 16:33N 47°40' W 122°23'0 0.0
2016-Jun-09 15:33N 47°40' W 122°23'0 0.0
2016-Jun-09 14:33N 47°40' W 122°23'0 0.0
2016-Jun-09 13:33N 47°40' W 122°23'0 0.0
2016-Jun-09 12:33N 47°40' W 122°23'0 0.0
2016-Jun-09 11:34N 47°40' W 122°23'0 0.0
2016-Jun-09 10:33N 47°40' W 122°23'0 0.0
2016-Jun-09 09:34N 47°40' W 122°23'0 0.0
2016-Jun-09 08:33N 47°40' W 122°23'0 0.0
2016-Jun-09 07:33N 47°40' W 122°23'0 0.0
2016-Jun-09 06:33N 47°40' W 122°23'0 0.0
2016-Jun-09 05:33N 47°40' W 122°23'0 0.0
2016-Jun-09 04:33N 47°40' W 122°23'0 0.0
2016-Jun-09 03:33N 47°40' W 122°23'0 0.0
2016-Jun-09 02:34N 47°40' W 122°23'0 0.0
2016-Jun-09 01:33N 47°40' W 122°23'0 0.0
2016-Jun-09 00:33N 47°40' W 122°23'0 0.0
2016-Jun-08 23:33N 47°40' W 122°23'0 0.0
2016-Jun-08 22:33N 47°40' W 122°23'0 0.0
2016-Jun-08 21:33N 47°40' W 122°23'0 0.0
2016-Jun-08 20:33N 47°40' W 122°23'0 0.0
2016-Jun-08 19:33N 47°40' W 122°23'0 0.0
2016-Jun-08 18:33N 47°40' W 122°23'0 0.0
2016-Jun-08 17:33N 47°40' W 122°23'0 0.0
2016-Jun-08 16:33N 47°40' W 122°23'0 0.0
2016-Jun-08 15:33N 47°40' W 122°23'0 0.0
2016-Jun-08 14:33N 47°40' W 122°23'0 0.0
2016-Jun-08 13:33N 47°40' W 122°23'0 0.0
2016-Jun-08 12:33N 47°40' W 122°23'0 0.0
2016-Jun-08 11:34N 47°40' W 122°23'  

Dump ship's entire track history